Time;durP1;ratioP1;P1;durP2;ratioP2;P2;SDS_P1;SDS_P2;PMS_P1;PMS_P2;Temp;Humidity;BMP_temperature;BMP_pressure;BME280_temperature;BME280_humidity;BME280_pressure;Samples;Min_cycle;Max_cycle;Signal;HPM_P1;HPM_P2
2021/09/06 00:02:11;;;;;;;15.87;12.87;;;16.30;99.90;;;;;;5124877;27;20243;-37
2021/09/06 00:04:37;;;;;;;15.47;13.43;;;16.30;99.90;;;;;;5121957;27;20271;-38
2021/09/06 00:07:03;;;;;;;17.00;13.53;;;16.30;99.90;;;;;;5128714;27;20225;-37
2021/09/06 00:09:31;;;;;;;17.40;14.33;;;16.20;99.90;;;;;;5128917;27;20187;-37
2021/09/06 00:11:58;;;;;;;15.87;13.07;;;16.10;99.90;;;;;;5128522;27;20424;-37
2021/09/06 00:14:24;;;;;;;16.70;14.20;;;16.00;99.90;;;;;;5124346;27;20834;-37
2021/09/06 00:16:50;;;;;;;16.30;12.77;;;15.90;99.90;;;;;;5117744;27;20731;-37
2021/09/06 00:19:16;;;;;;;17.63;14.90;;;15.90;99.90;;;;;;5124371;27;20970;-37
2021/09/06 00:21:41;;;;;;;16.90;13.30;;;15.80;99.90;;;;;;5108085;28;20203;-37
2021/09/06 00:24:07;;;;;;;15.30;13.00;;;15.80;99.90;;;;;;5101454;27;20986;-37
2021/09/06 00:26:33;;;;;;;22.77;14.10;;;15.80;99.90;;;;;;5128741;27;20211;-37
2021/09/06 00:28:59;;;;;;;17.67;13.23;;;15.70;99.90;;;;;;5128603;27;20191;-37
2021/09/06 00:31:25;;;;;;;19.03;14.87;;;15.70;99.90;;;;;;5113836;27;20241;-37
2021/09/06 00:33:51;;;;;;;15.90;12.70;;;15.60;99.90;;;;;;5126206;27;20262;-37
2021/09/06 00:36:17;;;;;;;17.60;14.03;;;15.60;99.90;;;;;;5128460;27;20948;-37
2021/09/06 00:38:42;;;;;;;17.30;14.10;;;15.60;99.90;;;;;;5128355;27;20808;-37
2021/09/06 00:41:08;;;;;;;17.00;14.60;;;15.60;99.90;;;;;;5128122;27;20420;-38
2021/09/06 00:43:34;;;;;;;16.80;13.63;;;15.60;99.90;;;;;;5128384;27;20195;-37
2021/09/06 00:45:59;;;;;;;18.37;14.57;;;15.50;99.90;;;;;;5098183;28;20272;-37
2021/09/06 00:48:26;;;;;;;19.03;13.83;;;15.60;99.90;;;;;;5126440;27;20805;-37
2021/09/06 00:50:54;;;;;;;16.40;13.70;;;15.80;99.90;;;;;;5127949;27;20662;-38
2021/09/06 00:53:20;;;;;;;19.77;15.37;;;15.80;99.90;;;;;;5127969;27;20765;-37
2021/09/06 00:55:46;;;;;;;17.97;14.70;;;15.70;99.90;;;;;;5127188;27;20416;-37
2021/09/06 00:58:13;;;;;;;18.57;14.77;;;15.70;99.90;;;;;;5128178;27;20432;-37
2021/09/06 01:00:39;;;;;;;17.60;14.40;;;15.70;99.90;;;;;;5120181;27;20793;-37
2021/09/06 01:03:05;;;;;;;17.83;14.20;;;15.60;99.90;;;;;;5125976;27;20448;-37
2021/09/06 01:05:30;;;;;;;20.67;15.90;;;15.60;99.90;;;;;;5127640;27;20850;-37
2021/09/06 01:07:59;;;;;;;19.20;15.00;;;15.70;99.90;;;;;;5127721;27;20290;-37
2021/09/06 01:10:25;;;;;;;17.67;14.00;;;15.60;99.90;;;;;;5127608;27;20252;-37
2021/09/06 01:12:50;;;;;;;18.97;15.70;;;15.60;99.90;;;;;;5127414;27;20742;-37
2021/09/06 01:15:17;;;;;;;19.00;15.37;;;15.50;99.90;;;;;;5114574;27;20241;-38
2021/09/06 01:17:43;;;;;;;18.53;14.57;;;15.40;99.90;;;;;;5121048;27;20178;-37
2021/09/06 01:20:10;;;;;;;22.30;16.53;;;15.50;99.90;;;;;;5125311;27;20413;-37
2021/09/06 01:22:36;;;;;;;22.80;16.40;;;15.50;99.90;;;;;;5127562;27;20420;-37
2021/09/06 01:25:03;;;;;;;17.00;14.20;;;15.50;99.90;;;;;;5127656;27;20509;-38
2021/09/06 01:27:29;;;;;;;18.70;15.20;;;15.40;99.90;;;;;;5127316;27;20433;-37
2021/09/06 01:29:55;;;;;;;17.60;14.70;;;15.40;99.90;;;;;;5126881;27;20939;-37
2021/09/06 01:32:21;;;;;;;16.90;14.13;;;15.40;99.90;;;;;;5117253;27;20195;-37
2021/09/06 01:34:47;;;;;;;19.83;14.80;;;15.50;99.90;;;;;;5120447;27;20226;-37
2021/09/06 01:37:12;;;;;;;18.10;14.07;;;15.50;99.90;;;;;;5126970;27;20931;-38
2021/09/06 01:39:38;;;;;;;20.30;15.13;;;15.60;99.90;;;;;;5127002;27;20195;-37
2021/09/06 01:42:04;;;;;;;17.90;15.27;;;15.60;99.90;;;;;;5126866;27;20243;-37
2021/09/06 01:44:29;;;;;;;21.43;16.07;;;15.60;99.90;;;;;;5108887;27;20195;-38
2021/09/06 01:46:55;;;;;;;19.07;16.37;;;15.70;99.90;;;;;;5117193;27;20210;-38
2021/09/06 01:49:21;;;;;;;18.80;14.43;;;15.40;99.90;;;;;;5126807;27;20331;-37
2021/09/06 01:51:46;;;;;;;20.07;14.43;;;15.40;99.90;;;;;;5126555;27;20183;-37
2021/09/06 01:54:12;;;;;;;18.03;14.00;;;15.30;99.90;;;;;;5108286;27;20897;-39
2021/09/06 01:56:38;;;;;;;17.57;14.77;;;15.10;99.90;;;;;;5108402;27;20885;-37
2021/09/06 01:59:04;;;;;;;19.70;15.30;;;15.00;99.90;;;;;;5126780;27;20198;-37
2021/09/06 02:01:30;;;;;;;18.77;13.97;;;14.90;99.90;;;;;;5118641;27;20491;-38
2021/09/06 02:03:56;;;;;;;19.03;14.67;;;14.90;99.90;;;;;;5126440;27;20934;-37
2021/09/06 02:06:22;;;;;;;17.17;14.10;;;15.00;99.90;;;;;;5125694;27;20457;-37
2021/09/06 02:08:47;;;;;;;18.20;15.13;;;15.00;99.90;;;;;;5126395;27;20203;-37
2021/09/06 02:11:14;;;;;;;20.77;15.20;;;15.00;99.90;;;;;;5126813;27;20428;-37
2021/09/06 02:13:39;;;;;;;18.80;15.10;;;15.10;99.90;;;;;;5126484;27;20211;-37
2021/09/06 02:16:05;;;;;;;22.27;15.93;;;15.00;99.90;;;;;;5109030;27;20449;-37
2021/09/06 02:18:31;;;;;;;21.57;16.50;;;15.10;99.90;;;;;;5124216;27;20233;-37
2021/09/06 02:20:56;;;;;;;19.30;15.27;;;15.10;99.90;;;;;;5126709;27;20198;-37
2021/09/06 02:23:22;;;;;;;19.57;15.00;;;15.10;99.90;;;;;;5126415;27;20197;-37
2021/09/06 02:25:48;;;;;;;17.87;14.93;;;15.20;99.90;;;;;;5126418;27;20341;-37
2021/09/06 02:28:14;;;;;;;20.13;15.40;;;15.10;99.90;;;;;;5126734;28;20922;-37
2021/09/06 02:30:39;;;;;;;20.10;16.30;;;14.90;99.90;;;;;;5122532;28;20290;-37
2021/09/06 02:33:05;;;;;;;20.63;16.60;;;15.00;99.90;;;;;;5119067;28;20672;-37
2021/09/06 02:35:31;;;;;;;22.73;17.17;;;15.00;99.90;;;;;;5126355;28;20190;-37
2021/09/06 02:37:57;;;;;;;20.17;16.97;;;15.10;99.90;;;;;;5126201;28;20994;-37
2021/09/06 02:40:23;;;;;;;21.43;16.10;;;15.00;99.90;;;;;;5126272;28;20239;-37
2021/09/06 02:42:48;;;;;;;22.20;15.87;;;15.00;99.90;;;;;;5126420;28;20191;-37
2021/09/06 02:45:14;;;;;;;21.33;16.10;;;14.90;99.90;;;;;;5107726;28;20922;-37
2021/09/06 02:47:44;;;;;;;18.87;15.37;;;15.00;99.90;;;;;;5091969;28;20528;-37
2021/09/06 02:50:10;;;;;;;22.70;16.73;;;15.00;99.90;;;;;;5106848;28;20254;-37
2021/09/06 02:52:36;;;;;;;17.57;14.10;;;15.00;99.90;;;;;;5126107;28;20425;-37
2021/09/06 02:55:02;;;;;;;22.53;15.80;;;15.10;99.90;;;;;;5126297;28;20917;-37
2021/09/06 02:57:27;;;;;;;20.83;15.40;;;15.20;99.90;;;;;;5125945;28;20727;-37
2021/09/06 02:59:53;;;;;;;18.43;15.37;;;15.20;99.90;;;;;;5126350;28;20221;-37
2021/09/06 03:02:18;;;;;;;19.83;14.10;;;15.20;99.90;;;;;;5112903;28;20218;-37
2021/09/06 03:04:44;;;;;;;19.90;15.10;;;15.10;99.90;;;;;;5126005;28;20191;-37
2021/09/06 03:07:10;;;;;;;17.07;14.43;;;15.10;99.90;;;;;;5125518;28;20226;-37
2021/09/06 03:09:35;;;;;;;19.73;14.50;;;15.00;99.90;;;;;;5126443;28;20209;-37
2021/09/06 03:12:02;;;;;;;21.90;14.80;;;14.90;99.90;;;;;;5125766;28;20665;-38
2021/09/06 03:14:28;;;;;;;19.77;14.73;;;14.70;99.90;;;;;;5121446;28;20188;-38
2021/09/06 03:16:53;;;;;;;19.60;14.83;;;14.50;99.90;;;;;;5088913;27;20451;-37
2021/09/06 03:19:20;;;;;;;18.20;15.07;;;14.50;99.90;;;;;;5127236;27;20189;-37
2021/09/06 03:21:45;;;;;;;18.10;15.17;;;14.60;99.90;;;;;;5129238;27;20463;-38
2021/09/06 03:24:11;;;;;;;18.30;14.13;;;14.40;99.90;;;;;;5130044;27;20424;-37
2021/09/06 03:26:37;;;;;;;19.30;15.40;;;14.40;99.90;;;;;;5129489;27;20554;-37
2021/09/06 03:29:03;;;;;;;20.70;14.60;;;14.40;99.90;;;;;;5129952;27;20415;-37
2021/09/06 03:31:31;;;;;;;21.47;14.60;;;14.40;99.90;;;;;;5122766;27;20790;-37
2021/09/06 03:33:58;;;;;;;17.47;14.00;;;14.30;99.90;;;;;;5129016;27;20515;-38
2021/09/06 03:36:24;;;;;;;17.87;13.77;;;14.20;99.90;;;;;;5129492;27;20881;-37
2021/09/06 03:38:51;;;;;;;17.97;13.90;;;14.10;99.90;;;;;;5129625;27;20487;-37
2021/09/06 03:41:18;;;;;;;18.40;14.70;;;14.10;99.90;;;;;;5129812;27;20428;-37
2021/09/06 03:43:43;;;;;;;19.43;14.90;;;14.00;99.90;;;;;;5129506;27;20480;-37
2021/09/06 03:46:09;;;;;;;21.50;16.10;;;14.00;99.90;;;;;;5126742;27;20718;-37
2021/09/06 03:48:35;;;;;;;21.50;15.53;;;14.10;99.90;;;;;;5120985;27;20191;-37
2021/09/06 03:51:00;;;;;;;20.10;16.27;;;14.00;99.90;;;;;;5124271;27;20218;-37
2021/09/06 03:53:26;;;;;;;23.70;16.30;;;14.10;99.90;;;;;;5129069;27;20190;-37
2021/09/06 03:55:51;;;;;;;21.23;15.57;;;14.10;99.90;;;;;;5129040;27;20464;-37
2021/09/06 03:58:17;;;;;;;20.63;15.60;;;14.30;99.90;;;;;;5111055;27;20191;-37
2021/09/06 04:00:43;;;;;;;19.93;15.40;;;14.20;99.90;;;;;;5129331;27;20202;-37
2021/09/06 04:03:09;;;;;;;19.93;15.40;;;14.10;99.90;;;;;;5117556;27;20729;-37
2021/09/06 04:05:34;;;;;;;21.80;16.63;;;14.20;99.90;;;;;;5128161;27;20728;-37
2021/09/06 04:08:00;;;;;;;25.57;16.17;;;14.10;99.90;;;;;;5128876;27;20713;-37
2021/09/06 04:10:26;;;;;;;20.07;15.30;;;14.20;99.90;;;;;;5129198;27;20554;-37
2021/09/06 04:12:51;;;;;;;22.93;15.03;;;14.30;99.90;;;;;;5128745;27;20731;-37
2021/09/06 04:15:17;;;;;;;20.90;15.60;;;14.40;99.90;;;;;;5117433;27;20289;-36
2021/09/06 04:17:42;;;;;;;23.57;15.67;;;14.50;99.90;;;;;;5093663;27;20582;-37
2021/09/06 04:20:09;;;;;;;19.77;14.43;;;14.40;99.90;;;;;;5128801;27;20191;-37
2021/09/06 04:22:35;;;;;;;18.63;14.63;;;14.40;99.90;;;;;;5128445;27;20195;-37
2021/09/06 04:25:02;;;;;;;19.40;14.97;;;14.50;99.90;;;;;;5128741;27;20421;-37
2021/09/06 04:27:28;;;;;;;17.87;14.17;;;14.50;99.90;;;;;;5128725;27;20211;-37
2021/09/06 04:29:53;;;;;;;19.20;15.17;;;14.50;99.90;;;;;;5127923;27;20416;-37
2021/09/06 04:32:19;;;;;;;23.53;15.97;;;14.50;99.90;;;;;;5124203;27;20448;-36
2021/09/06 04:34:45;;;;;;;19.80;14.80;;;14.50;99.90;;;;;;5121155;27;20187;-37
2021/09/06 04:37:10;;;;;;;19.80;15.20;;;14.40;99.90;;;;;;5128200;27;20198;-37
2021/09/06 04:39:36;;;;;;;19.17;14.53;;;14.10;99.90;;;;;;5128477;27;20289;-37
2021/09/06 04:42:02;;;;;;;18.20;14.57;;;13.80;99.90;;;;;;5127953;27;20692;-37
2021/09/06 04:44:28;;;;;;;19.57;15.13;;;13.90;99.90;;;;;;5128123;27;20199;-37
2021/09/06 04:46:53;;;;;;;20.80;15.10;;;13.90;99.90;;;;;;5122618;27;20212;-37
2021/09/06 04:49:19;;;;;;;21.80;15.10;;;14.00;99.90;;;;;;5120862;27;20182;-37
2021/09/06 04:51:45;;;;;;;19.80;13.90;;;14.10;99.90;;;;;;5122870;27;20538;-37
2021/09/06 04:54:10;;;;;;;18.50;13.93;;;14.00;99.90;;;;;;5107850;28;20199;-37
2021/09/06 04:56:36;;;;;;;17.47;13.87;;;13.80;99.90;;;;;;5122483;27;20195;-37
2021/09/06 04:59:02;;;;;;;19.03;14.00;;;13.60;99.90;;;;;;5128565;27;20236;-37
2021/09/06 05:01:27;;;;;;;16.83;13.13;;;13.70;99.90;;;;;;5126557;27;20212;-37
2021/09/06 05:03:54;;;;;;;20.77;16.10;;;13.80;99.90;;;;;;5114600;27;20203;-37
2021/09/06 05:06:19;;;;;;;20.30;14.93;;;13.80;99.90;;;;;;5122180;27;20729;-37
2021/09/06 05:08:45;;;;;;;22.60;15.17;;;13.90;99.90;;;;;;5107477;28;20536;-37
2021/09/06 05:11:11;;;;;;;20.00;13.87;;;14.00;99.90;;;;;;5117499;27;20223;-37
2021/09/06 05:13:36;;;;;;;19.90;14.90;;;14.10;99.90;;;;;;5127480;27;20190;-37
2021/09/06 05:16:02;;;;;;;18.93;14.93;;;14.20;99.90;;;;;;5090392;28;20617;-37
2021/09/06 05:18:28;;;;;;;18.20;13.30;;;14.20;99.90;;;;;;5111358;27;20199;-37
2021/09/06 05:20:54;;;;;;;21.30;15.27;;;14.20;99.90;;;;;;5124017;27;20183;-38
2021/09/06 05:23:19;;;;;;;20.87;15.37;;;14.20;99.90;;;;;;5127336;27;20236;-37
2021/09/06 05:25:45;;;;;;;20.13;14.73;;;14.20;99.90;;;;;;5109260;27;20505;-37
2021/09/06 05:28:11;;;;;;;22.53;16.30;;;14.20;99.90;;;;;;5127613;27;20195;-37
2021/09/06 05:30:37;;;;;;;21.40;15.93;;;14.20;99.90;;;;;;5127335;27;20195;-37
2021/09/06 05:33:02;;;;;;;19.93;16.03;;;14.20;99.90;;;;;;5118482;27;20334;-38
2021/09/06 05:35:28;;;;;;;19.80;15.70;;;14.20;99.90;;;;;;5125737;27;20248;-37
2021/09/06 05:37:54;;;;;;;20.33;15.03;;;14.20;99.90;;;;;;5127030;27;20392;-37
2021/09/06 05:40:19;;;;;;;21.80;14.87;;;14.20;99.90;;;;;;5126665;27;20191;-37
2021/09/06 05:42:45;;;;;;;17.57;14.27;;;14.30;99.90;;;;;;5126643;27;20649;-37
2021/09/06 05:45:11;;;;;;;17.97;13.47;;;14.30;99.90;;;;;;5127198;27;20183;-37
2021/09/06 05:47:37;;;;;;;17.60;13.67;;;14.30;99.90;;;;;;5119139;27;20183;-37
2021/09/06 05:50:03;;;;;;;17.93;13.33;;;14.30;99.90;;;;;;5124681;27;20187;-38
2021/09/06 05:52:29;;;;;;;16.70;14.23;;;14.10;99.90;;;;;;5108291;27;20444;-38
2021/09/06 05:54:54;;;;;;;17.07;13.77;;;14.00;99.90;;;;;;5127332;27;20751;-37
2021/09/06 05:57:20;;;;;;;18.70;13.43;;;14.00;99.90;;;;;;5126463;27;20193;-38
2021/09/06 05:59:46;;;;;;;20.03;14.77;;;14.00;99.90;;;;;;5127119;27;20191;-37
2021/09/06 06:02:11;;;;;;;18.13;14.40;;;14.10;99.90;;;;;;5123141;27;20200;-37
2021/09/06 06:04:37;;;;;;;18.17;13.47;;;14.20;99.90;;;;;;5121722;27;20179;-37
2021/09/06 06:07:03;;;;;;;19.47;14.70;;;14.30;99.90;;;;;;5124123;27;20211;-37
2021/09/06 06:09:29;;;;;;;18.53;13.63;;;14.40;99.90;;;;;;5126730;27;20328;-37
2021/09/06 06:11:54;;;;;;;18.00;13.83;;;14.50;99.90;;;;;;5126495;27;20503;-37
2021/09/06 06:14:20;;;;;;;19.33;15.00;;;14.60;99.90;;;;;;5122590;27;20202;-37
2021/09/06 06:16:46;;;;;;;18.37;14.70;;;14.70;99.90;;;;;;5105120;28;20201;-37
2021/09/06 06:19:11;;;;;;;19.90;14.87;;;14.90;99.90;;;;;;5116093;27;20687;-38
2021/09/06 06:21:37;;;;;;;18.53;14.77;;;15.00;99.90;;;;;;5119372;27;20199;-37
2021/09/06 06:24:03;;;;;;;20.50;15.67;;;15.20;99.90;;;;;;5126430;27;20213;-38
2021/09/06 06:26:29;;;;;;;20.60;15.60;;;15.30;99.90;;;;;;5126607;27;20933;-37
2021/09/06 06:28:54;;;;;;;18.50;15.03;;;15.50;99.90;;;;;;5126540;27;20454;-37
2021/09/06 06:31:20;;;;;;;18.33;14.87;;;15.60;99.90;;;;;;5126701;28;20849;-37
2021/09/06 06:33:46;;;;;;;20.13;15.70;;;15.80;99.90;;;;;;5115631;28;20183;-37
2021/09/06 06:36:11;;;;;;;22.13;16.73;;;16.00;99.90;;;;;;5126167;28;20723;-37
2021/09/06 06:38:37;;;;;;;22.03;15.80;;;16.20;99.90;;;;;;5126545;28;20183;-37
2021/09/06 06:41:03;;;;;;;23.90;18.30;;;16.40;99.90;;;;;;5126500;28;20183;-37
2021/09/06 06:43:29;;;;;;;19.20;16.50;;;16.60;99.90;;;;;;5126096;28;20195;-37
2021/09/06 06:45:56;;;;;;;20.03;15.70;;;16.70;99.90;;;;;;5125603;28;20478;-37
2021/09/06 06:48:22;;;;;;;20.50;15.23;;;16.90;99.90;;;;;;5119144;28;20432;-37
2021/09/06 06:50:49;;;;;;;18.10;14.43;;;17.00;99.90;;;;;;5120641;28;20752;-37
2021/09/06 06:53:15;;;;;;;16.90;14.50;;;17.10;99.90;;;;;;5129422;27;20428;-37
2021/09/06 06:55:40;;;;;;;18.80;15.10;;;17.20;99.90;;;;;;5111864;27;20432;-37
2021/09/06 06:58:06;;;;;;;18.23;15.13;;;17.30;99.90;;;;;;5130244;27;20190;-37
2021/09/06 07:00:32;;;;;;;20.43;15.43;;;17.30;99.90;;;;;;5130626;27;20298;-37
2021/09/06 07:02:57;;;;;;;18.47;15.07;;;17.50;99.90;;;;;;5124969;27;20210;-37
2021/09/06 07:05:23;;;;;;;18.00;15.47;;;17.60;99.90;;;;;;5120897;27;20194;-37
2021/09/06 07:07:49;;;;;;;21.17;15.20;;;17.70;99.90;;;;;;5129494;27;20211;-37
2021/09/06 07:10:14;;;;;;;18.43;15.03;;;17.80;99.90;;;;;;5111909;27;20205;-37
2021/09/06 07:12:40;;;;;;;19.30;16.20;;;17.80;99.90;;;;;;5129407;27;20312;-38
2021/09/06 07:15:08;;;;;;;19.67;16.83;;;17.90;99.90;;;;;;5119638;27;20599;-38
2021/09/06 07:17:33;;;;;;;18.40;15.33;;;17.90;99.90;;;;;;5107517;28;20426;-37
2021/09/06 07:20:00;;;;;;;20.03;15.70;;;17.90;99.90;;;;;;5121673;27;20439;-37
2021/09/06 07:22:25;;;;;;;19.33;15.60;;;18.00;99.90;;;;;;5110913;27;20630;-37
2021/09/06 07:24:51;;;;;;;19.73;15.90;;;18.00;99.90;;;;;;5111742;27;20442;-37
2021/09/06 07:27:17;;;;;;;19.63;16.20;;;18.10;99.90;;;;;;5129467;27;20558;-38
2021/09/06 07:29:42;;;;;;;20.87;15.57;;;18.10;99.90;;;;;;5129922;27;20788;-37
2021/09/06 07:32:09;;;;;;;19.90;16.27;;;18.30;99.90;;;;;;5111054;27;20228;-37
2021/09/06 07:34:35;;;;;;;22.00;16.73;;;18.30;99.90;;;;;;5115565;27;20857;-37
2021/09/06 07:37:10;;;;;;;19.03;15.97;;;18.40;99.90;;;;;;5128306;27;20989;-38
2021/09/06 07:39:38;;;;;;;20.73;16.27;;;18.50;99.90;;;;;;5129786;27;20782;-37
2021/09/06 07:42:04;;;;;;;19.73;15.20;;;18.70;99.90;;;;;;5129045;27;20499;-37
2021/09/06 07:44:30;;;;;;;21.20;15.03;;;18.70;99.90;;;;;;5129633;27;20523;-38
2021/09/06 07:46:57;;;;;;;19.23;16.13;;;18.80;99.90;;;;;;5129378;27;20222;-37
2021/09/06 07:49:23;;;;;;;18.70;15.40;;;18.90;99.90;;;;;;5099883;27;20438;-38
2021/09/06 07:51:52;;;;;;;22.03;14.80;;;18.90;99.90;;;;;;5129103;27;20412;-37
2021/09/06 07:54:23;;;;;;;20.20;15.13;;;19.00;99.90;;;;;;5129268;27;20418;-37
2021/09/06 07:56:51;;;;;;;20.60;15.27;;;19.00;99.90;;;;;;5128930;27;20467;-37
2021/09/06 07:59:17;;;;;;;17.50;15.23;;;19.10;99.90;;;;;;5129360;27;20429;-37
2021/09/06 08:01:46;;;;;;;17.63;14.20;;;19.10;99.90;;;;;;5128709;27;20420;-37
2021/09/06 08:04:12;;;;;;;18.07;15.10;;;19.10;99.90;;;;;;5119302;27;20953;-37
2021/09/06 08:06:38;;;;;;;17.87;14.53;;;19.10;99.90;;;;;;5110392;27;20913;-37
2021/09/06 08:09:05;;;;;;;20.37;15.33;;;19.10;99.90;;;;;;5128695;27;20841;-37
2021/09/06 08:11:31;;;;;;;19.23;13.90;;;19.20;99.90;;;;;;5128772;27;20423;-37
2021/09/06 08:13:57;;;;;;;17.47;14.90;;;19.30;99.90;;;;;;5127936;27;20413;-37
2021/09/06 08:16:22;;;;;;;15.87;13.07;;;19.30;99.90;;;;;;5107363;28;20707;-36
2021/09/06 08:18:48;;;;;;;16.33;13.60;;;19.40;99.90;;;;;;5108432;27;20869;-37
2021/09/06 08:21:14;;;;;;;19.43;14.40;;;19.50;99.90;;;;;;5125024;27;20191;-37
2021/09/06 08:23:40;;;;;;;16.10;13.97;;;19.50;99.90;;;;;;5128237;27;20187;-38
2021/09/06 08:26:06;;;;;;;17.83;14.30;;;19.60;99.90;;;;;;5128775;27;20226;-38
2021/09/06 08:28:31;;;;;;;18.53;14.20;;;19.60;99.90;;;;;;5128759;27;20957;-38
2021/09/06 08:30:57;;;;;;;15.53;13.77;;;19.60;99.90;;;;;;5129009;27;20190;-37
2021/09/06 08:33:23;;;;;;;13.60;11.50;;;19.60;99.90;;;;;;5124297;27;20187;-37
2021/09/06 08:35:49;;;;;;;15.33;11.20;;;19.70;99.90;;;;;;5120973;27;20757;-37
2021/09/06 08:38:16;;;;;;;12.23;10.83;;;19.70;99.90;;;;;;5122595;27;20919;-38
2021/09/06 08:40:42;;;;;;;14.13;11.77;;;19.70;99.90;;;;;;5128676;27;20767;-37
2021/09/06 08:43:08;;;;;;;13.80;10.50;;;19.80;99.90;;;;;;5128067;27;20512;-37
2021/09/06 08:45:35;;;;;;;12.10;9.17;;;19.80;99.90;;;;;;5128398;27;20572;-37
2021/09/06 08:48:01;;;;;;;12.60;10.20;;;19.90;99.90;;;;;;5109422;27;20205;-37
2021/09/06 08:50:27;;;;;;;13.40;10.23;;;20.00;99.90;;;;;;5119768;27;20547;-37
2021/09/06 08:52:54;;;;;;;12.57;10.43;;;20.00;99.90;;;;;;5127353;27;20429;-37
2021/09/06 08:55:20;;;;;;;14.70;12.03;;;20.10;99.90;;;;;;5128411;27;20473;-37
2021/09/06 08:57:46;;;;;;;12.10;10.90;;;20.10;99.90;;;;;;5127755;27;20420;-36
2021/09/06 09:00:12;;;;;;;15.40;11.37;;;20.10;99.90;;;;;;5128549;27;20428;-37
2021/09/06 09:02:40;;;;;;;12.33;10.67;;;20.20;99.90;;;;;;5127710;27;20278;-37
2021/09/06 09:05:10;;;;;;;14.17;12.00;;;20.30;99.90;;;;;;5118676;27;20441;-37
2021/09/06 09:07:39;;;;;;;15.37;12.80;;;20.30;99.90;;;;;;5127232;27;20508;-37
2021/09/06 09:10:09;;;;;;;13.13;11.60;;;20.40;99.90;;;;;;5128186;27;20777;-37
2021/09/06 09:12:37;;;;;;;16.43;12.67;;;20.40;99.90;;;;;;5127375;27;20923;-37
2021/09/06 09:15:04;;;;;;;13.70;12.00;;;20.50;99.90;;;;;;5116693;27;20800;-37
2021/09/06 09:17:30;;;;;;;15.97;12.47;;;20.50;99.90;;;;;;5105452;28;20434;-37
2021/09/06 09:20:02;;;;;;;17.97;12.80;;;20.60;99.90;;;;;;5108124;27;20448;-37
2021/09/06 09:22:33;;;;;;;14.87;12.17;;;20.70;99.90;;;;;;5125456;27;20546;-37
2021/09/06 09:25:05;;;;;;;15.73;13.20;;;20.70;99.90;;;;;;5119416;27;20425;-38
2021/09/06 09:27:42;;;;;;;15.27;12.00;;;20.80;99.90;;;;;;5127523;27;20521;-37
2021/09/06 09:30:21;;;;;;;15.37;12.73;;;21.00;99.90;;;;;;5127766;27;20408;-36
2021/09/06 09:32:46;;;;;;;14.70;12.20;;;21.00;99.90;;;;;;5127046;27;20409;-36
2021/09/06 09:35:12;;;;;;;15.03;12.23;;;21.10;99.90;;;;;;5115865;27;20429;-37
2021/09/06 09:37:38;;;;;;;15.87;13.77;;;21.20;99.90;;;;;;5127186;27;20311;-37
2021/09/06 09:40:08;;;;;;;18.57;14.77;;;21.40;99.90;;;;;;5127147;27;20290;-37
2021/09/06 09:42:44;;;;;;;17.03;13.00;;;21.50;99.90;;;;;;5127373;27;20190;-37
2021/09/06 09:45:11;;;;;;;16.20;13.70;;;21.60;99.90;;;;;;5127002;27;20416;-38
2021/09/06 09:47:36;;;;;;;18.30;14.03;;;21.70;99.90;;;;;;5126910;27;20456;-37
2021/09/06 09:50:02;;;;;;;16.67;12.47;;;21.80;99.90;;;;;;5116330;27;20436;-37
2021/09/06 09:52:28;;;;;;;16.33;12.80;;;21.90;99.90;;;;;;5125078;27;20202;-37
2021/09/06 09:54:54;;;;;;;15.43;12.67;;;22.00;99.90;;;;;;5109397;27;20438;-37
2021/09/06 09:57:25;;;;;;;17.27;12.93;;;22.10;99.90;;;;;;5108859;27;20202;-37
2021/09/06 09:59:52;;;;;;;14.20;12.13;;;22.20;99.90;;;;;;5127318;27;20421;-37
2021/09/06 10:02:27;;;;;;;13.87;11.93;;;22.30;99.90;;;;;;5108458;27;20428;-37
2021/09/06 10:05:00;;;;;;;18.57;13.80;;;22.30;99.90;;;;;;5119917;27;20543;-38
2021/09/06 10:07:30;;;;;;;14.70;12.30;;;22.40;99.90;;;;;;5124323;27;20463;-37
2021/09/06 10:09:55;;;;;;;13.40;11.70;;;22.50;99.90;;;;;;5123717;27;20452;-37
2021/09/06 10:12:23;;;;;;;15.67;13.40;;;22.50;99.90;;;;;;5126744;27;20537;-36
2021/09/06 10:15:03;;;;;;;14.97;12.30;;;22.60;99.90;;;;;;5119534;27;20597;-38
2021/09/06 10:17:39;;;;;;;14.00;11.23;;;22.70;99.90;;;;;;5104516;28;20425;-37
2021/09/06 10:20:25;;;;;;;15.70;12.57;;;22.70;99.90;;;;;;5110051;27;20458;-37
2021/09/06 10:23:04;;;;;;;19.20;14.00;;;22.80;99.90;;;;;;5122715;27;20408;-37
2021/09/06 10:25:32;;;;;;;15.40;12.60;;;22.90;99.90;;;;;;5121714;27;20423;-36
2021/09/06 10:28:05;;;;;;;15.30;12.47;;;22.90;99.90;;;;;;5125979;27;20432;-37
2021/09/06 10:30:45;;;;;;;19.30;14.17;;;22.90;99.90;;;;;;5126685;27;20420;-37
2021/09/06 10:33:34;;;;;;;18.13;13.80;;;22.90;99.90;;;;;;5126029;28;20833;-37
2021/09/06 10:36:12;;;;;;;15.30;12.50;;;23.00;99.90;;;;;;5115609;28;20448;-38
2021/09/06 10:38:43;;;;;;;16.90;14.13;;;23.10;99.90;;;;;;5126192;28;20428;-36
2021/09/06 10:41:18;;;;;;;18.43;12.73;;;23.20;99.90;;;;;;5126845;28;20791;-37
2021/09/06 10:43:49;;;;;;;18.67;14.60;;;23.30;99.90;;;;;;5125881;28;20458;-37
2021/09/06 10:46:15;;;;;;;16.23;13.10;;;23.30;99.90;;;;;;5126505;28;20685;-37
2021/09/06 10:48:42;;;;;;;15.93;12.67;;;23.30;99.90;;;;;;5126365;28;20417;-37
2021/09/06 10:51:09;;;;;;;16.10;12.70;;;23.40;99.90;;;;;;5120675;28;20420;-37
2021/09/06 10:53:37;;;;;;;15.70;13.33;;;23.50;99.90;;;;;;5121493;28;20440;-37
2021/09/06 10:56:04;;;;;;;16.27;13.00;;;23.50;99.90;;;;;;5126425;28;20412;-36
2021/09/06 10:58:29;;;;;;;15.70;12.37;;;23.50;99.90;;;;;;5126153;28;20425;-37
2021/09/06 11:00:57;;;;;;;15.17;12.53;;;23.60;99.90;;;;;;5126660;28;20428;-37
2021/09/06 11:03:25;;;;;;;14.80;13.30;;;23.60;99.90;;;;;;5107471;28;20183;-37
2021/09/06 11:05:56;;;;;;;14.10;11.60;;;23.70;99.90;;;;;;5097863;28;20471;-37
2021/09/06 11:08:28;;;;;;;14.70;12.00;;;23.80;99.90;;;;;;5122844;28;20440;-36
2021/09/06 11:10:56;;;;;;;14.10;12.13;;;23.80;99.90;;;;;;5126171;28;20413;-37
2021/09/06 11:13:23;;;;;;;14.50;12.90;;;23.80;99.90;;;;;;5122513;28;20858;-37
2021/09/06 11:15:48;;;;;;;13.13;11.30;;;23.80;98.80;;;;;;5125873;28;20448;-37
2021/09/06 11:18:14;;;;;;;15.00;11.70;;;23.70;99.70;;;;;;5106180;28;20467;-36
2021/09/06 11:20:46;;;;;;;13.13;11.73;;;23.70;99.60;;;;;;5097112;28;20191;-37
2021/09/06 11:23:12;;;;;;;14.20;11.67;;;23.70;99.50;;;;;;5125570;28;20516;-37
2021/09/06 11:25:39;;;;;;;20.07;13.67;;;23.80;98.90;;;;;;5090336;28;20839;-37
2021/09/06 11:28:06;;;;;;;13.00;11.57;;;23.70;97.10;;;;;;5108473;28;20616;-37
2021/09/06 11:30:34;;;;;;;15.23;11.80;;;23.70;98.70;;;;;;5125930;28;20413;-36
2021/09/06 11:33:02;;;;;;;13.77;11.97;;;23.80;99.10;;;;;;5125626;28;20413;-37
2021/09/06 11:35:29;;;;;;;13.13;11.73;;;23.80;99.40;;;;;;5119607;28;20428;-37
2021/09/06 11:37:55;;;;;;;12.37;11.07;;;23.80;99.30;;;;;;5119711;27;20891;-37
2021/09/06 11:40:21;;;;;;;14.40;12.07;;;24.00;99.90;;;;;;5129540;27;20432;-38
2021/09/06 11:42:47;;;;;;;15.80;11.67;;;24.00;99.70;;;;;;5111109;27;20484;-37
2021/09/06 11:45:18;;;;;;;14.30;11.63;;;24.10;99.90;;;;;;5129631;27;20601;-37
2021/09/06 11:47:44;;;;;;;14.93;12.07;;;24.10;99.90;;;;;;5129087;27;20223;-37
2021/09/06 11:50:11;;;;;;;15.47;13.40;;;24.10;99.40;;;;;;5123239;27;20467;-37
2021/09/06 11:52:40;;;;;;;13.20;11.13;;;24.10;98.60;;;;;;5122942;27;20436;-37
2021/09/06 11:55:18;;;;;;;13.70;11.30;;;24.20;99.10;;;;;;5129258;27;20528;-37
2021/09/06 11:57:44;;;;;;;15.30;11.77;;;24.20;99.50;;;;;;5129336;27;20473;-37
2021/09/06 12:00:11;;;;;;;14.17;12.10;;;24.20;99.20;;;;;;5128957;27;20946;-37
2021/09/06 12:02:58;;;;;;;12.60;11.30;;;24.10;96.30;;;;;;5110649;27;20416;-37
2021/09/06 12:05:23;;;;;;;13.03;11.67;;;24.00;97.90;;;;;;5122815;27;20445;-36
2021/09/06 12:07:54;;;;;;;12.03;10.70;;;24.00;97.70;;;;;;5126614;27;20593;-37
2021/09/06 12:10:31;;;;;;;11.70;9.80;;;24.00;98.00;;;;;;5129365;27;20695;-37
2021/09/06 12:13:00;;;;;;;11.97;10.73;;;24.00;98.30;;;;;;5105023;28;20437;-37
2021/09/06 12:15:29;;;;;;;13.37;11.97;;;24.00;98.70;;;;;;5128576;27;20694;-37
2021/09/06 12:18:14;;;;;;;13.30;11.47;;;24.00;98.80;;;;;;5126954;27;21013;-37
2021/09/06 12:20:42;;;;;;;15.23;11.53;;;24.00;98.00;;;;;;5123397;27;20446;-37
2021/09/06 12:23:11;;;;;;;12.23;11.00;;;24.10;98.40;;;;;;5123681;27;20855;-37
2021/09/06 12:25:38;;;;;;;14.80;11.83;;;24.10;98.30;;;;;;5127046;27;20995;-36
2021/09/06 12:28:13;;;;;;;15.30;13.23;;;24.10;98.20;;;;;;5128818;27;20463;-37